createdAt,value
2024-03-04T00:04:12.112Z,40.60
2024-03-04T00:09:15.316Z,38.03
2024-03-04T00:14:17.859Z,36.43
2024-03-04T00:19:20.485Z,37.60
2024-03-04T00:24:23.656Z,41.90
2024-03-04T00:29:28.946Z,39.07
2024-03-04T00:34:31.597Z,38.23
2024-03-04T00:39:34.200Z,42.33
2024-03-04T00:44:36.856Z,42.90
2024-03-04T00:49:39.398Z,43.90
2024-03-04T00:54:41.941Z,39.30
2024-03-04T00:59:44.962Z,37.57
2024-03-04T01:04:47.651Z,48.10
2024-03-04T01:09:50.170Z,34.97
2024-03-04T01:14:53.356Z,39.50
2024-03-04T01:19:56.677Z,38.67
2024-03-04T01:24:59.546Z,30.57
2024-03-04T01:30:02.056Z,48.23
2024-03-04T01:35:08.727Z,44.83
2024-03-04T01:40:14.762Z,47.87
2024-03-04T01:45:27.071Z,49.03
2024-03-04T01:50:34.934Z,51.37
2024-03-04T01:55:43.846Z,32.60
2024-03-04T02:00:50.343Z,49.27
2024-03-04T02:05:55.079Z,46.47
2024-03-04T02:10:58.669Z,47.40
2024-03-04T02:16:01.754Z,46.03
2024-03-04T02:21:06.172Z,53.80
2024-03-04T02:26:08.664Z,45.43
2024-03-04T02:31:11.785Z,46.37
2024-03-04T02:36:14.522Z,54.53
2024-03-04T02:41:17.077Z,33.60
2024-03-04T02:46:20.163Z,44.83
2024-03-04T02:51:23.087Z,45.63
2024-03-04T02:56:25.747Z,43.50
2024-03-04T03:01:29.466Z,40.57
2024-03-04T03:06:32.164Z,46.53
2024-03-04T03:11:34.561Z,29.53
2024-03-04T03:16:37.190Z,47.37
2024-03-04T03:21:40.316Z,47.17
2024-03-04T03:26:42.675Z,50.00
2024-03-04T03:31:45.847Z,54.07
2024-03-04T03:36:48.409Z,48.47
2024-03-04T03:41:51.015Z,48.67
2024-03-04T03:46:53.482Z,38.03
2024-03-04T03:51:56.081Z,55.20
2024-03-04T03:56:58.513Z,43.70
2024-03-04T04:02:01.158Z,49.57
2024-03-04T04:07:04.239Z,40.73
2024-03-04T04:12:07.838Z,50.70
2024-03-04T04:17:10.356Z,38.23
2024-03-04T04:22:13.034Z,38.50
2024-03-04T04:27:15.465Z,44.40
2024-03-04T04:32:18.994Z,46.43
2024-03-04T04:37:21.874Z,53.00
2024-03-04T04:42:25.201Z,52.90
2024-03-04T04:47:28.549Z,55.50
2024-03-04T04:52:31.954Z,41.57
2024-03-04T04:57:34.435Z,49.83
2024-03-04T05:02:36.851Z,47.80
2024-03-04T05:07:40.787Z,36.10
2024-03-04T05:12:43.926Z,56.67
2024-03-04T05:17:47.455Z,50.00
2024-03-04T05:22:50.349Z,53.63
2024-03-04T05:27:52.847Z,46.97
2024-03-04T05:32:55.282Z,48.37
2024-03-04T05:37:58.350Z,49.33
2024-03-04T05:43:00.885Z,70.20
2024-03-04T05:48:03.524Z,55.70
2024-03-04T05:53:06.117Z,53.03
2024-03-04T05:58:08.751Z,45.80
2024-03-04T06:03:12.844Z,45.83
2024-03-04T06:08:16.109Z,51.73
2024-03-04T06:13:19.042Z,60.40
2024-03-04T06:18:21.573Z,55.97
2024-03-04T06:23:24.009Z,41.77
2024-03-04T06:28:26.481Z,44.10
2024-03-04T06:33:39.871Z,45.33
2024-03-04T06:38:51.758Z,49.10
2024-03-04T06:43:54.448Z,54.83
2024-03-04T06:48:58.216Z,54.57
2024-03-04T06:54:00.728Z,50.27
2024-03-04T06:59:04.053Z,48.10
2024-03-04T07:04:07.703Z,49.23
2024-03-04T07:09:10.221Z,44.97
2024-03-04T07:14:12.678Z,52.73
2024-03-04T07:19:15.318Z,43.30
2024-03-04T07:24:19.038Z,40.57
2024-03-04T07:29:27.333Z,31.90
2024-03-04T07:34:38.652Z,34.97
2024-03-04T07:39:41.736Z,35.80
2024-03-04T07:44:45.955Z,43.53
2024-03-04T07:49:48.486Z,35.80
2024-03-04T07:54:50.912Z,25.60
2024-03-04T07:59:53.474Z,30.03
2024-03-04T08:04:56.035Z,30.97
2024-03-04T08:09:58.817Z,37.63
2024-03-04T08:15:01.887Z,33.67
2024-03-04T08:20:11.494Z,29.90
2024-03-04T08:25:19.633Z,27.00
2024-03-04T08:30:22.306Z,26.27
2024-03-04T08:35:24.777Z,35.30
2024-03-04T08:40:28.182Z,29.70
2024-03-04T08:45:30.875Z,34.23
2024-03-04T08:50:33.588Z,26.47
2024-03-04T08:55:36.027Z,29.17
2024-03-04T09:00:40.554Z,30.93
2024-03-04T09:05:45.733Z,32.30
2024-03-04T09:10:49.529Z,33.27
2024-03-04T09:15:52.079Z,28.97
2024-03-04T09:20:57.045Z,36.50
2024-03-04T09:25:59.619Z,33.13
2024-03-04T09:31:02.051Z,27.53
2024-03-04T09:36:05.135Z,32.20
2024-03-04T09:41:08.092Z,35.97
2024-03-04T09:46:11.150Z,36.10
2024-03-04T09:51:15.319Z,34.80
2024-03-04T09:56:18.587Z,32.63
2024-03-04T10:01:21.901Z,30.57
2024-03-04T10:06:24.502Z,39.10
2024-03-04T10:11:27.090Z,43.77
2024-03-04T10:16:30.144Z,43.37
2024-03-04T10:21:33.608Z,28.97
2024-03-04T10:26:48.438Z,34.87
2024-03-04T10:31:56.108Z,40.57
2024-03-04T10:36:59.814Z,39.40
2024-03-04T10:42:04.465Z,35.80
2024-03-04T10:47:08.192Z,43.77
2024-03-04T10:52:14.107Z,34.60
2024-03-04T10:57:27.844Z,41.77
2024-03-04T11:02:44.124Z,43.13
2024-03-04T11:07:47.786Z,40.90
2024-03-04T11:13:19.209Z,36.13
2024-03-04T11:18:52.645Z,39.43
2024-03-04T11:23:55.639Z,48.83
2024-03-04T11:34:30.217Z,44.93
2024-03-04T11:39:32.706Z,45.83
2024-03-04T11:44:35.121Z,36.10
2024-03-04T11:49:46.809Z,43.70
2024-03-04T11:54:50.027Z,47.43
2024-03-04T11:59:59.676Z,45.33
2024-03-04T12:05:03.494Z,50.63
2024-03-04T12:10:13.222Z,43.53
2024-03-04T12:15:20.100Z,40.10
2024-03-04T12:20:22.996Z,49.20
2024-03-04T12:25:28.445Z,39.03
2024-03-04T12:30:31.118Z,48.37
2024-03-04T12:35:34.247Z,36.97
2024-03-04T12:40:37.159Z,38.10
2024-03-04T12:45:39.841Z,44.23
2024-03-04T12:50:44.265Z,38.83
2024-03-04T12:55:49.196Z,25.73
2024-03-04T13:00:52.143Z,29.17
2024-03-04T13:05:56.038Z,35.83
2024-03-04T13:10:59.275Z,26.97
2024-03-04T13:16:01.845Z,35.43
2024-03-04T13:21:06.580Z,36.63
2024-03-04T13:26:09.041Z,34.73
2024-03-04T13:31:11.597Z,32.80
2024-03-04T13:36:14.085Z,35.27
2024-03-04T13:41:16.527Z,40.97
2024-03-04T13:46:19.102Z,32.93
2024-03-04T13:51:21.478Z,27.77
2024-03-04T13:56:24.212Z,37.37
2024-03-04T14:01:27.749Z,36.53
2024-03-04T14:06:30.536Z,41.10
2024-03-04T14:11:33.019Z,37.90
2024-03-04T14:16:36.519Z,26.83
2024-03-04T14:21:39.238Z,31.67
2024-03-04T14:26:41.756Z,27.53
2024-03-04T14:31:44.240Z,25.33
2024-03-04T14:36:47.909Z,27.87
2024-03-04T14:41:50.507Z,30.90
2024-03-04T14:46:53.021Z,35.20
2024-03-04T14:51:55.799Z,31.33
2024-03-04T14:56:58.136Z,36.67
2024-03-04T15:02:00.620Z,34.17
2024-03-04T15:07:05.524Z,41.70
2024-03-04T15:12:08.780Z,26.10
2024-03-04T15:17:11.319Z,25.97
2024-03-04T15:22:13.878Z,40.83
2024-03-04T15:27:16.793Z,32.83
2024-03-04T15:32:19.539Z,37.33
2024-03-04T15:37:23.238Z,34.87
2024-03-04T15:42:25.689Z,26.83
2024-03-04T15:47:28.279Z,39.37
2024-03-04T15:52:30.762Z,36.30
2024-03-04T15:57:33.188Z,39.07
2024-03-04T16:02:35.690Z,35.77
2024-03-04T16:07:38.410Z,31.80
2024-03-04T16:12:41.023Z,42.17
2024-03-04T16:17:43.776Z,37.03
2024-03-04T16:22:46.678Z,42.43
2024-03-04T16:27:51.539Z,39.87
2024-03-04T16:32:54.098Z,41.43
2024-03-04T16:37:56.659Z,44.57
2024-03-04T16:42:59.130Z,44.63
2024-03-04T16:48:02.130Z,43.73
2024-03-04T16:53:04.776Z,43.17
2024-03-04T16:58:07.393Z,48.10
2024-03-04T17:03:09.955Z,42.97
2024-03-04T17:08:14.096Z,55.77
2024-03-04T17:13:17.018Z,44.33
2024-03-04T17:18:19.734Z,44.83
2024-03-04T17:23:22.499Z,47.17
2024-03-04T17:28:24.999Z,45.83
2024-03-04T17:33:27.555Z,50.80
2024-03-04T17:38:29.994Z,51.80
2024-03-04T17:43:32.444Z,71.07
2024-03-04T17:48:34.977Z,56.70
2024-03-04T17:53:38.670Z,67.07
2024-03-04T17:58:41.149Z,41.90
2024-03-04T18:03:43.511Z,65.40
2024-03-04T18:08:45.996Z,59.47
2024-03-04T18:13:48.667Z,66.27
2024-03-04T18:18:51.145Z,60.30
2024-03-04T18:23:53.651Z,56.97
2024-03-04T18:40:12.690Z,68.70
2024-03-04T18:45:15.402Z,50.70
2024-03-04T18:50:18.704Z,53.87
2024-03-04T18:55:21.213Z,52.83
2024-03-04T19:00:23.808Z,56.90
2024-03-04T19:05:29.822Z,43.70
2024-03-04T19:10:32.417Z,60.30
2024-03-04T19:15:35.037Z,58.93
2024-03-04T19:20:40.268Z,67.77
2024-03-04T19:25:42.833Z,51.83
2024-03-04T19:30:45.405Z,46.47
2024-03-04T19:35:47.971Z,55.97
2024-03-04T19:40:50.578Z,46.83
2024-03-04T19:45:53.068Z,35.83
2024-03-04T19:50:56.760Z,38.90
2024-03-04T19:56:01.532Z,33.50
2024-03-04T20:01:05.244Z,35.63
2024-03-04T20:06:07.901Z,48.50
2024-03-04T20:11:12.690Z,46.63
2024-03-04T20:16:16.982Z,51.30
2024-03-04T20:21:20.174Z,55.30
2024-03-04T20:26:23.101Z,44.13
2024-03-04T20:31:25.555Z,42.70
2024-03-04T20:36:28.135Z,43.40
2024-03-04T20:41:30.619Z,35.73
2024-03-04T20:46:33.080Z,46.77
2024-03-04T20:51:36.297Z,49.77
2024-03-04T20:56:38.768Z,44.87
2024-03-04T21:01:41.769Z,41.97
2024-03-04T21:06:45.176Z,49.73
2024-03-04T21:11:53.430Z,42.10
2024-03-04T21:16:57.041Z,47.97
2024-03-04T21:21:59.644Z,50.70
2024-03-04T21:27:02.155Z,54.37
2024-03-04T21:32:05.865Z,37.67
2024-03-04T21:37:16.909Z,38.20
2024-03-04T21:42:25.131Z,40.40
2024-03-04T21:47:28.291Z,45.40
2024-03-04T21:52:30.903Z,44.40
2024-03-04T21:57:33.693Z,45.27
2024-03-04T22:02:36.241Z,42.10
2024-03-04T22:07:39.489Z,45.27
2024-03-04T22:12:42.160Z,46.13
2024-03-04T22:17:44.815Z,52.03
2024-03-04T22:22:47.332Z,47.13
2024-03-04T22:27:49.852Z,46.77
2024-03-04T22:32:52.382Z,55.33
2024-03-04T22:37:55.705Z,48.37
2024-03-04T22:42:58.872Z,55.83
2024-03-04T22:48:01.625Z,51.87
2024-03-04T22:53:04.780Z,48.77
2024-03-04T22:58:07.313Z,45.67
2024-03-04T23:03:12.193Z,49.90
2024-03-04T23:08:15.399Z,49.17
2024-03-04T23:13:18.621Z,45.73
2024-03-04T23:18:21.097Z,53.50
2024-03-04T23:23:23.539Z,48.00
2024-03-04T23:28:26.400Z,41.77
2024-03-04T23:33:29.359Z,41.90
2024-03-04T23:38:31.800Z,48.57
2024-03-04T23:43:34.819Z,42.00
2024-03-04T23:48:38.015Z,40.53
2024-03-04T23:53:40.790Z,46.93
2024-03-04T23:58:43.294Z,44.00
